Wilson Mersin — P3PA6 — position and weather

sailwx.info

Track history (hours):
 
Tides and Currents Weather Stations Pressure Air Temp Water Temp Dewpoint Dewpoint Depression Visibility Wind Speed Wind Dir Waves Ship Positions

Wilson Mersin

Last reported at 2017-Feb-25 05:03 UTC. Time now 2017-Feb-27 04:34 UTC.
Position N 56°08' E 016°56'.

Length 107 m; draft 5.2 m.

Type: Cargo ship. MMSI: 210072000.

Date/timePositionNaut miles runAvg speedWind from/ knotsBaromVisibWave heightAir tempDewpointWater temp
2017-Feb-25 05:03N 56°08' E 016°56'612.4
2017-Feb-25 04:33N 56°04' E 016°47'1212.4
2017-Feb-25 03:33N 55°57' E 016°29'1212.4
2017-Feb-25 02:33N 55°51' E 016°10'1212.1
2017-Feb-25 01:33N 55°45' E 015°51'1212.1
2017-Feb-25 00:33N 55°39' E 015°32'1212.2
2017-Feb-24 23:33N 55°33' E 015°13'1212.5
2017-Feb-24 22:33N 55°27' E 014°54'1312.6
2017-Feb-24 21:33N 55°20' E 014°36'1312.5
2017-Feb-24 20:33N 55°10' E 014°22'1212.3
2017-Feb-24 19:33N 55°01' E 014°08'1312.6
2017-Feb-24 18:32N 54°57' E 013°46'3712.4
2017-Feb-24 15:34N 54°43' E 012°47'2612.8
2017-Feb-24 13:33N 54°26' E 012°13'2612.4
2017-Feb-24 11:26N 54°30' E 011°28'1112.9
2017-Feb-24 10:33N 54°34' E 011°10'1312.8
2017-Feb-24 09:33N 54°34' E 010°48'62 6.9
2017-Feb-24 00:33N 54°02' E 009°18'7 7.0
2017-Feb-23 23:33N 53°56' E 009°12'3 3.2
2017-Feb-23 22:33N 53°54' E 009°09'1 1.4
2017-Feb-23 21:33N 53°53' E 009°06'1 0.8
2017-Feb-23 20:29N 53°53' E 009°05'9 9.4
2017-Feb-23 19:33N 53°50' E 008°51'1414.1
2017-Feb-23 18:33N 53°58' E 008°31'1414.4
2017-Feb-23 17:33N 53°59' E 008°07'4 3.6
2017-Feb-23 16:32N 54°03' E 008°08'0 0.0
2017-Feb-23 14:23N 54°03' E 008°08'0 0.1
2017-Feb-23 13:20N 54°03' E 008°08'0 0.0
2017-Feb-23 12:32N 54°03' E 008°08'0 0.0
2017-Feb-23 10:29N 54°03' E 008°08'0 0.0
2017-Feb-23 07:32N 54°03' E 008°08'0 0.0
2017-Feb-23 06:11N 54°03' E 008°08'0 0.0
2017-Feb-23 02:17N 54°03' E 008°08'0 0.0
2017-Feb-22 21:17N 54°03' E 008°08'0 0.1
2017-Feb-22 19:29N 54°03' E 008°08'4 4.0
2017-Feb-22 18:33N 54°01' E 008°14'10 9.7
2017-Feb-22 17:33N 53°58' E 008°30'10 9.9
2017-Feb-22 16:33N 53°52' E 008°43'1 1.1
2017-Feb-22 15:33N 53°51' E 008°43'0 0.0
2017-Feb-22 14:33N 53°51' E 008°43'0 0.0
2017-Feb-22 13:33N 53°51' E 008°43'0 0.0
2017-Feb-22 12:33N 53°51' E 008°43'0 0.0
2017-Feb-22 11:33N 53°51' E 008°43'0 0.0
2017-Feb-22 10:30N 53°51' E 008°43'0 0.0
2017-Feb-22 09:33N 53°51' E 008°43'0 0.0
2017-Feb-22 08:27N 53°51' E 008°43'0 0.0
2017-Feb-22 07:33N 53°51' E 008°43'0 0.0
2017-Feb-22 06:33N 53°51' E 008°43'0 0.0
2017-Feb-22 05:33N 53°51' E 008°43'0 0.0
2017-Feb-22 04:33N 53°51' E 008°43'0 0.0
2017-Feb-22 03:33N 53°51' E 008°43'0 0.0
2017-Feb-22 02:33N 53°51' E 008°43'0 0.0
2017-Feb-22 01:33N 53°51' E 008°43'0 0.0
2017-Feb-22 00:33N 53°51' E 008°43'0 0.0
2017-Feb-21 23:33N 53°51' E 008°43'0 0.0
2017-Feb-21 22:33N 53°51' E 008°43'0 0.0
2017-Feb-21 21:30N 53°51' E 008°43'0 0.0
2017-Feb-21 20:33N 53°51' E 008°43'0 0.0
2017-Feb-21 19:33N 53°51' E 008°43'0 0.0
2017-Feb-21 18:33N 53°51' E 008°43'0 0.0
2017-Feb-21 17:33N 53°51' E 008°43'0 0.0
2017-Feb-21 16:33N 53°51' E 008°43'0 0.0
2017-Feb-21 15:33N 53°51' E 008°43'0 0.0
2017-Feb-21 14:33N 53°51' E 008°43'0 0.0
2017-Feb-21 13:33N 53°51' E 008°43'0 0.0
2017-Feb-21 12:33N 53°51' E 008°43'0 0.0
2017-Feb-21 11:33N 53°51' E 008°43'0 0.0
2017-Feb-21 10:33N 53°51' E 008°43'0 0.0
2017-Feb-21 09:30N 53°51' E 008°43'0 0.2
2017-Feb-21 08:33N 53°51' E 008°43'2 2.4
2017-Feb-21 07:33N 53°54' E 008°42'1212.0
2017-Feb-21 06:34N 53°59' E 008°24'1111.1
2017-Feb-21 05:33N 53°59' E 008°04'21 6.2
2017-Feb-21 02:07N 54°10' E 007°33'5211.4
2017-Feb-20 21:33N 54°59' E 007°05'1211.3
2017-Feb-20 20:32N 55°10' E 006°59'21311.8
2017-Feb-20 02:33N 58°33' E 005°02'1211.7
2017-Feb-20 01:32N 58°45' E 004°56'4511.2
2017-Feb-19 21:33N 59°29' E 004°46'1211.6
2017-Feb-19 20:33N 59°41' E 004°49'1211.9
2017-Feb-19 19:34N 59°53' E 004°52'1110.9
2017-Feb-19 18:33N 60°03' E 004°55'10 9.5
2017-Feb-19 17:33N 60°10' E 005°09'1110.9
2017-Feb-19 16:33N 60°21' E 005°10'1111.0
2017-Feb-19 15:33N 60°32' E 005°17'1211.6
2017-Feb-19 14:33N 60°39' E 005°35'3 2.3
2017-Feb-19 13:18N 60°42' E 005°33'0 0.0
2017-Feb-19 12:18N 60°42' E 005°33'0 0.0
2017-Feb-19 11:33N 60°42' E 005°33'0 0.0
2017-Feb-19 10:24N 60°42' E 005°33'0 0.0
2017-Feb-19 09:24N 60°42' E 005°33'0 0.0
2017-Feb-19 08:33N 60°42' E 005°33'0 0.0
2017-Feb-19 07:33N 60°42' E 005°33'0 0.0
2017-Feb-19 06:33N 60°42' E 005°33'0 0.0
2017-Feb-19 05:33N 60°42' E 005°33'0 0.0
2017-Feb-19 04:32N 60°42' E 005°33'0 0.0
2017-Feb-19 03:33N 60°42' E 005°33'1 0.8
2017-Feb-19 02:33N 60°41' E 005°34'2 1.9
2017-Feb-19 01:33N 60°39' E 005°35'7 6.8
2017-Feb-19 00:33N 60°35' E 005°25'1212.0
2017-Feb-18 23:33N 60°24' E 005°14'1212.3
2017-Feb-18 22:33N 60°12' E 005°11'10 9.7
2017-Feb-18 21:33N 60°06' E 004°55'7 6.7
2017-Feb-18 20:33N 59°59' E 004°52'6 5.7
2017-Feb-18 19:34N 59°54' E 004°49'6 6.4
2017-Feb-18 18:34N 59°48' E 004°47'5 5.4
2017-Feb-18 17:33N 59°42' E 004°45'5 5.5
2017-Feb-18 16:33N 59°37' E 004°45'6 5.6
2017-Feb-18 15:33N 59°31' E 004°44'38 7.0
2017-Feb-18 10:09N 58°54' E 004°36'16 8.3
2017-Feb-18 08:16N 58°38' E 004°33'912.3
2017-Feb-18 07:34N 58°30' E 004°32'38812.1
2017-Feb-16 23:33N 52°13' E 001°49'1111.1
2017-Feb-16 22:34N 52°04' E 001°40'1111.2
2017-Feb-16 21:34N 51°56' E 001°27'9 8.8
2017-Feb-16 20:33N 51°60' E 001°15'4 3.8
2017-Feb-16 19:31N 52°02' E 001°09'0 0.0
2017-Feb-16 18:31N 52°02' E 001°09'0 0.0
2017-Feb-16 17:31N 52°02' E 001°09'0 0.0
2017-Feb-16 16:31N 52°02' E 001°09'0 0.0
2017-Feb-16 15:31N 52°02' E 001°09'0 0.0
2017-Feb-16 14:31N 52°02' E 001°09'0 0.0
2017-Feb-16 13:31N 52°02' E 001°09'0 0.0
2017-Feb-16 12:31N 52°02' E 001°09'0 0.0
2017-Feb-16 11:31N 52°02' E 001°09'0 0.0
2017-Feb-16 10:31N 52°02' E 001°09'0 0.0
2017-Feb-16 09:31N 52°02' E 001°09'1 0.7
2017-Feb-16 08:33N 52°02' E 001°10'6 6.4
2017-Feb-16 07:34N 51°57' E 001°18'9 8.7
2017-Feb-16 06:33N 51°58' E 001°32'8 7.9
2017-Feb-16 05:33N 52°04' E 001°39'1010.0
2017-Feb-16 04:33N 52°14' E 001°44'3411.3
2017-Feb-16 01:33N 52°48' E 001°52'1414.0
2017-Feb-16 00:33N 52°57' E 001°35'1514.6
2017-Feb-15 23:33N 53°08' E 001°18'5313.2
2017-Feb-15 19:33N 53°35' E 000°02'9 8.6
2017-Feb-15 18:33N 53°38' W 000°11'0 0.2
2017-Feb-15 17:33N 53°38' W 000°12'0 0.0
2017-Feb-15 16:30N 53°38' W 000°12'0 0.0
2017-Feb-15 15:33N 53°38' W 000°12'0 0.0
2017-Feb-15 14:24N 53°38' W 000°12'0 0.0
2017-Feb-15 13:30N 53°38' W 000°12'0 0.0
2017-Feb-15 12:33N 53°38' W 000°12'0 0.0
2017-Feb-15 11:30N 53°38' W 000°12'0 0.0
2017-Feb-15 10:21N 53°38' W 000°12'0 0.0
2017-Feb-15 09:30N 53°38' W 000°12'0 0.0
2017-Feb-15 08:33N 53°38' W 000°12'0 0.0
2017-Feb-15 07:33N 53°38' W 000°12'0 0.0
2017-Feb-15 06:33N 53°38' W 000°12'0 0.0
2017-Feb-15 05:24N 53°38' W 000°12'  
Track history (hours):
 
Tides and Currents Weather Stations Pressure Air Temp Water Temp Dewpoint Dewpoint Depression Visibility Wind Speed Wind Dir Waves Ship Positions

Wilson Mersin

Last reported at 2017-Feb-25 05:03 UTC. Time now 2017-Feb-27 04:34 UTC.
Position N 56°08' E 016°56'.

Length 107 m; draft 5.2 m.

Type: Cargo ship. MMSI: 210072000.

Date/timePositionNaut miles runAvg speedWind from/ knotsBaromVisibWave heightAir tempDewpointWater temp
2017-Feb-25 05:03N 56°08' E 016°56'612.4
2017-Feb-25 04:33N 56°04' E 016°47'1212.4
2017-Feb-25 03:33N 55°57' E 016°29'1212.4
2017-Feb-25 02:33N 55°51' E 016°10'1212.1
2017-Feb-25 01:33N 55°45' E 015°51'1212.1
2017-Feb-25 00:33N 55°39' E 015°32'1212.2
2017-Feb-24 23:33N 55°33' E 015°13'1212.5
2017-Feb-24 22:33N 55°27' E 014°54'1312.6
2017-Feb-24 21:33N 55°20' E 014°36'1312.5
2017-Feb-24 20:33N 55°10' E 014°22'1212.3
2017-Feb-24 19:33N 55°01' E 014°08'1312.6
2017-Feb-24 18:32N 54°57' E 013°46'3712.4
2017-Feb-24 15:34N 54°43' E 012°47'2612.8
2017-Feb-24 13:33N 54°26' E 012°13'2612.4
2017-Feb-24 11:26N 54°30' E 011°28'1112.9
2017-Feb-24 10:33N 54°34' E 011°10'1312.8
2017-Feb-24 09:33N 54°34' E 010°48'62 6.9
2017-Feb-24 00:33N 54°02' E 009°18'7 7.0
2017-Feb-23 23:33N 53°56' E 009°12'3 3.2
2017-Feb-23 22:33N 53°54' E 009°09'1 1.4
2017-Feb-23 21:33N 53°53' E 009°06'1 0.8
2017-Feb-23 20:29N 53°53' E 009°05'9 9.4
2017-Feb-23 19:33N 53°50' E 008°51'1414.1
2017-Feb-23 18:33N 53°58' E 008°31'1414.4
2017-Feb-23 17:33N 53°59' E 008°07'4 3.6
2017-Feb-23 16:32N 54°03' E 008°08'0 0.0
2017-Feb-23 14:23N 54°03' E 008°08'0 0.1
2017-Feb-23 13:20N 54°03' E 008°08'0 0.0
2017-Feb-23 12:32N 54°03' E 008°08'0 0.0
2017-Feb-23 10:29N 54°03' E 008°08'0 0.0
2017-Feb-23 07:32N 54°03' E 008°08'0 0.0
2017-Feb-23 06:11N 54°03' E 008°08'0 0.0
2017-Feb-23 02:17N 54°03' E 008°08'0 0.0
2017-Feb-22 21:17N 54°03' E 008°08'0 0.1
2017-Feb-22 19:29N 54°03' E 008°08'4 4.0
2017-Feb-22 18:33N 54°01' E 008°14'10 9.7
2017-Feb-22 17:33N 53°58' E 008°30'10 9.9
2017-Feb-22 16:33N 53°52' E 008°43'1 1.1
2017-Feb-22 15:33N 53°51' E 008°43'0 0.0
2017-Feb-22 14:33N 53°51' E 008°43'0 0.0
2017-Feb-22 13:33N 53°51' E 008°43'0 0.0
2017-Feb-22 12:33N 53°51' E 008°43'0 0.0
2017-Feb-22 11:33N 53°51' E 008°43'0 0.0
2017-Feb-22 10:30N 53°51' E 008°43'0 0.0
2017-Feb-22 09:33N 53°51' E 008°43'0 0.0
2017-Feb-22 08:27N 53°51' E 008°43'0 0.0
2017-Feb-22 07:33N 53°51' E 008°43'0 0.0
2017-Feb-22 06:33N 53°51' E 008°43'0 0.0
2017-Feb-22 05:33N 53°51' E 008°43'0 0.0
2017-Feb-22 04:33N 53°51' E 008°43'0 0.0
2017-Feb-22 03:33N 53°51' E 008°43'0 0.0
2017-Feb-22 02:33N 53°51' E 008°43'0 0.0
2017-Feb-22 01:33N 53°51' E 008°43'0 0.0
2017-Feb-22 00:33N 53°51' E 008°43'0 0.0
2017-Feb-21 23:33N 53°51' E 008°43'0 0.0
2017-Feb-21 22:33N 53°51' E 008°43'0 0.0
2017-Feb-21 21:30N 53°51' E 008°43'0 0.0
2017-Feb-21 20:33N 53°51' E 008°43'0 0.0
2017-Feb-21 19:33N 53°51' E 008°43'0 0.0
2017-Feb-21 18:33N 53°51' E 008°43'0 0.0
2017-Feb-21 17:33N 53°51' E 008°43'0 0.0
2017-Feb-21 16:33N 53°51' E 008°43'0 0.0
2017-Feb-21 15:33N 53°51' E 008°43'0 0.0
2017-Feb-21 14:33N 53°51' E 008°43'0 0.0
2017-Feb-21 13:33N 53°51' E 008°43'0 0.0
2017-Feb-21 12:33N 53°51' E 008°43'0 0.0
2017-Feb-21 11:33N 53°51' E 008°43'0 0.0
2017-Feb-21 10:33N 53°51' E 008°43'0 0.0
2017-Feb-21 09:30N 53°51' E 008°43'0 0.2
2017-Feb-21 08:33N 53°51' E 008°43'2 2.4
2017-Feb-21 07:33N 53°54' E 008°42'1212.0
2017-Feb-21 06:34N 53°59' E 008°24'1111.1
2017-Feb-21 05:33N 53°59' E 008°04'21 6.2
2017-Feb-21 02:07N 54°10' E 007°33'5211.4
2017-Feb-20 21:33N 54°59' E 007°05'1211.3
2017-Feb-20 20:32N 55°10' E 006°59'21311.8
2017-Feb-20 02:33N 58°33' E 005°02'1211.7
2017-Feb-20 01:32N 58°45' E 004°56'4511.2
2017-Feb-19 21:33N 59°29' E 004°46'1211.6
2017-Feb-19 20:33N 59°41' E 004°49'1211.9
2017-Feb-19 19:34N 59°53' E 004°52'1110.9
2017-Feb-19 18:33N 60°03' E 004°55'10 9.5
2017-Feb-19 17:33N 60°10' E 005°09'1110.9
2017-Feb-19 16:33N 60°21' E 005°10'1111.0
2017-Feb-19 15:33N 60°32' E 005°17'1211.6
2017-Feb-19 14:33N 60°39' E 005°35'3 2.3
2017-Feb-19 13:18N 60°42' E 005°33'0 0.0
2017-Feb-19 12:18N 60°42' E 005°33'0 0.0
2017-Feb-19 11:33N 60°42' E 005°33'0 0.0
2017-Feb-19 10:24N 60°42' E 005°33'0 0.0
2017-Feb-19 09:24N 60°42' E 005°33'0 0.0
2017-Feb-19 08:33N 60°42' E 005°33'0 0.0
2017-Feb-19 07:33N 60°42' E 005°33'0 0.0
2017-Feb-19 06:33N 60°42' E 005°33'0 0.0
2017-Feb-19 05:33N 60°42' E 005°33'0 0.0
2017-Feb-19 04:32N 60°42' E 005°33'0 0.0
2017-Feb-19 03:33N 60°42' E 005°33'1 0.8
2017-Feb-19 02:33N 60°41' E 005°34'2 1.9
2017-Feb-19 01:33N 60°39' E 005°35'7 6.8
2017-Feb-19 00:33N 60°35' E 005°25'1212.0
2017-Feb-18 23:33N 60°24' E 005°14'1212.3
2017-Feb-18 22:33N 60°12' E 005°11'10 9.7
2017-Feb-18 21:33N 60°06' E 004°55'7 6.7
2017-Feb-18 20:33N 59°59' E 004°52'6 5.7
2017-Feb-18 19:34N 59°54' E 004°49'6 6.4
2017-Feb-18 18:34N 59°48' E 004°47'5 5.4
2017-Feb-18 17:33N 59°42' E 004°45'5 5.5
2017-Feb-18 16:33N 59°37' E 004°45'6 5.6
2017-Feb-18 15:33N 59°31' E 004°44'38 7.0
2017-Feb-18 10:09N 58°54' E 004°36'16 8.3
2017-Feb-18 08:16N 58°38' E 004°33'912.3
2017-Feb-18 07:34N 58°30' E 004°32'38812.1
2017-Feb-16 23:33N 52°13' E 001°49'1111.1
2017-Feb-16 22:34N 52°04' E 001°40'1111.2
2017-Feb-16 21:34N 51°56' E 001°27'9 8.8
2017-Feb-16 20:33N 51°60' E 001°15'4 3.8
2017-Feb-16 19:31N 52°02' E 001°09'0 0.0
2017-Feb-16 18:31N 52°02' E 001°09'0 0.0
2017-Feb-16 17:31N 52°02' E 001°09'0 0.0
2017-Feb-16 16:31N 52°02' E 001°09'0 0.0
2017-Feb-16 15:31N 52°02' E 001°09'0 0.0
2017-Feb-16 14:31N 52°02' E 001°09'0 0.0
2017-Feb-16 13:31N 52°02' E 001°09'0 0.0
2017-Feb-16 12:31N 52°02' E 001°09'0 0.0
2017-Feb-16 11:31N 52°02' E 001°09'0 0.0
2017-Feb-16 10:31N 52°02' E 001°09'0 0.0
2017-Feb-16 09:31N 52°02' E 001°09'1 0.7
2017-Feb-16 08:33N 52°02' E 001°10'6 6.4
2017-Feb-16 07:34N 51°57' E 001°18'9 8.7
2017-Feb-16 06:33N 51°58' E 001°32'8 7.9
2017-Feb-16 05:33N 52°04' E 001°39'1010.0
2017-Feb-16 04:33N 52°14' E 001°44'3411.3
2017-Feb-16 01:33N 52°48' E 001°52'1414.0
2017-Feb-16 00:33N 52°57' E 001°35'1514.6
2017-Feb-15 23:33N 53°08' E 001°18'5313.2
2017-Feb-15 19:33N 53°35' E 000°02'9 8.6
2017-Feb-15 18:33N 53°38' W 000°11'0 0.2
2017-Feb-15 17:33N 53°38' W 000°12'0 0.0
2017-Feb-15 16:30N 53°38' W 000°12'0 0.0
2017-Feb-15 15:33N 53°38' W 000°12'0 0.0
2017-Feb-15 14:24N 53°38' W 000°12'0 0.0
2017-Feb-15 13:30N 53°38' W 000°12'0 0.0
2017-Feb-15 12:33N 53°38' W 000°12'0 0.0
2017-Feb-15 11:30N 53°38' W 000°12'0 0.0
2017-Feb-15 10:21N 53°38' W 000°12'0 0.0
2017-Feb-15 09:30N 53°38' W 000°12'0 0.0
2017-Feb-15 08:33N 53°38' W 000°12'0 0.0
2017-Feb-15 07:33N 53°38' W 000°12'0 0.0
2017-Feb-15 06:33N 53°38' W 000°12'0 0.0
2017-Feb-15 05:24N 53°38' W 000°12'  

Dump ship's entire track history